createdAt,value
2022-12-15T00:00:03.411Z,937.94
2022-12-15T00:05:03.186Z,938.00
2022-12-15T00:10:03.514Z,938.04
2022-12-15T00:15:03.193Z,938.08
2022-12-15T00:20:03.489Z,938.11
2022-12-15T00:25:03.177Z,938.11
2022-12-15T00:30:03.593Z,938.17
2022-12-15T00:35:03.122Z,938.19
2022-12-15T00:40:03.469Z,938.23
2022-12-15T00:45:03.188Z,938.21
2022-12-15T00:50:03.423Z,938.27
2022-12-15T00:55:03.181Z,938.25
2022-12-15T01:00:03.439Z,938.31
2022-12-15T01:05:03.217Z,938.33
2022-12-15T01:15:03.169Z,938.49
2022-12-15T01:20:03.530Z,938.52
2022-12-15T01:25:03.207Z,938.51
2022-12-15T01:30:03.350Z,938.54
2022-12-15T01:35:03.114Z,938.51
2022-12-15T01:40:03.363Z,938.49
2022-12-15T01:45:03.151Z,938.47
2022-12-15T01:50:03.270Z,938.47
2022-12-15T01:55:03.051Z,938.37
2022-12-15T02:00:03.492Z,938.35
2022-12-15T02:05:03.233Z,938.37
2022-12-15T02:10:03.343Z,938.49
2022-12-15T02:15:04.189Z,938.45
2022-12-15T02:20:03.246Z,938.35
2022-12-15T02:25:03.091Z,938.33
2022-12-15T02:30:03.340Z,938.31
2022-12-15T02:35:03.189Z,938.31
2022-12-15T02:40:08.402Z,938.45
2022-12-15T02:45:03.205Z,938.47
2022-12-15T02:50:03.451Z,938.47
2022-12-15T02:55:03.118Z,938.47
2022-12-15T03:00:03.389Z,938.45
2022-12-15T03:05:03.115Z,938.33
2022-12-15T03:10:03.407Z,938.33
2022-12-15T03:15:03.160Z,938.31
2022-12-15T03:20:03.493Z,938.31
2022-12-15T03:25:03.157Z,938.31
2022-12-15T03:30:03.312Z,938.31
2022-12-15T03:35:04.301Z,938.33
2022-12-15T03:40:03.518Z,938.37
2022-12-15T13:55:03.116Z,941.04
2022-12-15T14:00:03.410Z,941.08
2022-12-15T14:05:03.140Z,940.92
2022-12-15T14:10:03.339Z,941.02
2022-12-15T14:15:03.140Z,941.02
2022-12-15T14:20:03.405Z,940.90
2022-12-15T14:25:08.170Z,940.88
2022-12-15T14:30:03.297Z,940.86
2022-12-15T14:35:03.159Z,940.80
2022-12-15T14:40:03.401Z,940.76
2022-12-15T14:45:03.173Z,940.72
2022-12-15T14:50:03.332Z,940.64
2022-12-15T14:55:03.170Z,940.64
2022-12-15T15:00:03.534Z,940.66
2022-12-15T15:05:03.101Z,940.70
2022-12-15T15:10:04.186Z,940.72
2022-12-15T15:15:03.103Z,940.70
2022-12-15T15:20:03.705Z,940.72
2022-12-15T15:25:03.158Z,940.72
2022-12-15T15:30:04.255Z,940.70
2022-12-15T15:35:03.099Z,940.66
2022-12-15T15:40:03.446Z,940.63
2022-12-15T15:45:03.129Z,940.57
2022-12-15T15:50:03.398Z,940.53
2022-12-15T15:55:03.085Z,940.51
2022-12-15T16:00:03.491Z,940.47
2022-12-15T16:05:03.085Z,940.43
2022-12-15T16:10:03.389Z,940.37
2022-12-15T16:15:03.175Z,940.33
2022-12-15T16:20:03.440Z,940.33
2022-12-15T16:25:03.255Z,940.17
2022-12-15T16:30:03.343Z,940.08
2022-12-15T16:35:03.063Z,939.96
2022-12-15T16:40:03.647Z,939.90
2022-12-15T16:45:04.141Z,939.84
2022-12-15T16:50:03.358Z,939.74
2022-12-15T16:55:04.208Z,939.64
2022-12-15T17:00:03.475Z,939.53
2022-12-15T17:05:03.303Z,939.49
2022-12-15T17:10:03.530Z,939.43
2022-12-15T17:15:03.168Z,939.41
2022-12-15T17:25:03.115Z,939.35
2022-12-15T17:30:03.370Z,939.23
2022-12-15T17:35:03.081Z,939.19
2022-12-15T17:40:03.417Z,939.15
2022-12-15T17:45:03.240Z,939.07
2022-12-15T17:50:03.507Z,938.96
2022-12-15T17:55:03.265Z,938.86
2022-12-15T18:00:03.591Z,938.82
2022-12-15T18:05:03.038Z,938.76
2022-12-15T18:10:03.351Z,938.76
2022-12-15T18:15:03.144Z,938.74
2022-12-15T18:20:03.380Z,938.66
2022-12-15T18:25:03.228Z,938.54
2022-12-15T18:30:03.233Z,938.51
2022-12-15T18:35:03.148Z,938.37
2022-12-15T18:40:05.018Z,938.23
2022-12-15T18:45:03.120Z,938.21
2022-12-15T18:50:03.383Z,938.23
2022-12-15T18:55:03.181Z,938.23
2022-12-15T19:00:03.329Z,938.23
2022-12-15T19:05:03.206Z,938.17
2022-12-15T19:10:03.456Z,938.11
2022-12-15T19:15:03.133Z,938.02
2022-12-15T19:20:03.596Z,937.96
2022-12-15T19:25:03.139Z,937.78
2022-12-15T19:30:03.548Z,937.76
2022-12-15T19:35:04.665Z,937.84
2022-12-15T19:40:03.398Z,937.80
2022-12-15T19:45:03.077Z,937.76
2022-12-15T19:50:03.390Z,937.86
2022-12-15T19:55:03.166Z,937.82
2022-12-15T20:00:03.249Z,937.74
2022-12-15T20:05:03.079Z,937.78
2022-12-15T20:10:03.316Z,937.76
2022-12-15T20:15:04.106Z,937.84
2022-12-15T20:20:03.463Z,937.82
2022-12-15T20:25:03.124Z,937.78
2022-12-15T20:30:03.473Z,937.86
2022-12-15T20:35:03.080Z,937.84
2022-12-15T20:40:03.436Z,937.82
2022-12-15T20:45:03.124Z,937.80
2022-12-15T20:50:03.401Z,937.80
2022-12-15T20:55:03.129Z,937.78
2022-12-15T21:00:03.486Z,937.74
2022-12-15T21:05:03.050Z,937.78
2022-12-15T21:10:03.357Z,937.76
2022-12-15T21:15:03.102Z,937.66
2022-12-15T21:20:03.417Z,937.66
2022-12-15T21:25:03.100Z,937.70
2022-12-15T21:31:08.146Z,937.76
2022-12-15T21:35:03.192Z,937.78
2022-12-15T21:40:03.388Z,937.74
2022-12-15T21:45:03.142Z,937.78
2022-12-15T21:50:03.393Z,937.78
2022-12-15T21:55:03.128Z,937.80
2022-12-15T22:00:03.473Z,937.84
2022-12-15T22:05:03.221Z,937.74
2022-12-15T22:10:03.496Z,937.74
2022-12-15T22:15:03.255Z,937.74
2022-12-15T22:20:03.450Z,937.76
2022-12-15T22:25:03.215Z,937.66
2022-12-15T22:30:03.337Z,937.66
2022-12-15T22:35:03.128Z,937.62
2022-12-15T22:40:03.412Z,937.66
2022-12-15T22:45:03.140Z,937.64
2022-12-15T22:50:03.521Z,937.74
2022-12-15T22:55:03.296Z,937.78
2022-12-15T23:00:03.357Z,937.82
2022-12-15T23:05:03.077Z,937.80
2022-12-15T23:10:03.429Z,937.74
2022-12-15T23:15:03.166Z,937.74
2022-12-15T23:20:03.402Z,937.68
2022-12-15T23:25:03.168Z,937.62
2022-12-15T23:30:03.303Z,937.64
2022-12-15T23:35:03.164Z,937.64
2022-12-15T23:40:03.324Z,937.64
2022-12-15T23:45:03.185Z,937.68
2022-12-15T23:50:03.564Z,937.66
2022-12-15T23:55:03.209Z,937.64
